CEV3 weather

Vegreville Airport
Vegreville, Alberta, Canada

Public forecast

Using degrees Celsius for public forecast. Weather courtesy of forecast.io.

METAR (pilot weather report)

Closest report is Edmonton (CFB Namao) Heliport, 52.3 nm (96.9 km) W. Retrieved 2019/05/24 11:16 UTC (31 minutes ago):

CYED 241116Z AUTO 32004KT 9SM OVC061 10/08 A2979

TAF (pilot weather forecast)

Closest forecast is Edmonton (CFB Namao) Heliport, 52.3 nm (96.9 km) W. Retrieved 2019/05/24 06:33 UTC (5 hours ago):

TAF TAF CYED 240530Z 2406/2418 34005KT P6SM BKN100 OVC250 BECMG 2408/2410 04005KT FM241600 04010KT P6SM SCT060 OVC140 TEMPO 2416/2418 P6SM -SHRA RMK FCST BASED ON AUTO OBS 240600-241400Z. NXT FCST BY 241200Z